Terminal Aerodrome Forecast
Issued by NWS Charleston, SC

Current Version | Previous Version | Text Only | Print | Product List | Glossary On
Versions: 1 2 3 4 5 6 7 8 9 10 11 12 13 14 15
473
FTUS42 KCHS 132320
TAFSAV
TAF
KSAV 132320Z 1400/1424 01005KT P6SM SKC
     FM141300 04012KT P6SM SCT250
     FM141900 08011KT P6SM SCT040 OVC200=

USA.gov is the U.S. government's official web portal to all federal, state and local government web resources and services.